Hickory Regional Airport
KHKY : rendu visible

Aérodrome :











RETROUVEZ-NOUS SUR...

 
LOGIN :

S'inscrire | Disclaimer

   EN    FR    IT 

 









Légende :    VFR   VFR Marginal   IFR   IFR Intensif   IFR Très Intensif
Visi : 
Plafond : 
>= 8 km
>= 3000ft
5 à 8 km
1000 à 3000 ft
1500m à 5 km
500 à 1000 ft
800 à 1500m
200 à 500 ft
< 800m
< 200 ft
Symboles :   Orages  Brouillard  Fortes neiges  Fortes précipitations  Vent > 20 kt






- Altitude de l'aérodrome : 1190 ft
- Code IATA : HKY


KHKY - Hickory Regional

DERNIER METAR :
  • 072153Z 08006KT 10SM CLR 11/03 A3029 RMK AO2 SLP249 T01110028

METARs EXPIRÉS :
  • 072053Z VRB05KT 10SM CLR 12/03 A3029 RMK AO2 SLP248 T01170028 53002
  • 071953Z 08005KT 10SM OVC050 13/03 A3028 RMK AO2 SLP243 T01280028

TAF KHKY
Valide du 07 à 18h jusqu'au 08 à 18h UTC


071733Z 0718/0818 07006KT P6SM SCT045 SCT250
FM080900 VRB02KT P6SM BKN035
FM081500 06003KT P6SM SCT035 SCT100



MET'MAP, la Météo Aéronautique d'un coup d'oeil ! - Copyright ORBIFLY Décembre 2007 - Disclaimer

ORBIFLY MET'MAP TEAM :

Programmation & Développement : Alexandra Zaïnal
Sur une idée originale de : Baudouin d'Aumeries
Assistance à la programmation : Marc-Olivier Méhu
Soutien technique & logistique : Manuel Goepfert

Contact : metmap@orbifly.com




SOURCES & CREDITS :

   NOAA       Earth
Advisory